Terminal Aerodrome Forecast
Issued by NWS

Home | Current Version | Previous Version | Text Only | Print | Product List | Glossary On
Versions: 1 2 3 4 5 6 7 8 9 10 11 12 13 14 15 16 17
000
FTUS46 KSEW 262300
TAFPAE
TAF
KPAE 262326Z 2700/2724 18014G21KT P6SM SCT250
     FM271600 16007KT P6SM SCT040 OVC100
     FM271800 17010KT P6SM OVC040
     FM272200 18009KT P6SM OVC020=

USA.gov is the U.S. government's official web portal to all federal, state and local government web resources and services.